createdAt,value
2019-02-25T00:00:58.667Z,74.30
2019-02-25T00:05:34.426Z,74.60
2019-02-25T00:10:10.829Z,75.40
2019-02-25T00:15:05.825Z,75.70
2019-02-25T00:19:41.640Z,75.30
2019-02-25T00:24:17.401Z,74.00
2019-02-25T00:28:53.173Z,73.90
2019-02-25T00:33:28.964Z,74.70
2019-02-25T00:38:05.053Z,74.70
2019-02-25T00:42:40.820Z,74.30
2019-02-25T00:47:16.605Z,74.10
2019-02-25T00:51:52.361Z,73.30
2019-02-25T00:56:28.154Z,73.90
2019-02-25T01:01:04.414Z,73.70
2019-02-25T01:05:39.796Z,74.60
2019-02-25T01:10:16.053Z,74.00
2019-02-25T01:14:51.828Z,74.70
2019-02-25T01:19:27.630Z,74.10
2019-02-25T01:24:03.460Z,75.40
2019-02-25T01:33:48.910Z,75.30
2019-02-25T01:38:24.693Z,75.10
2019-02-25T01:43:00.464Z,74.30
2019-02-25T01:47:36.237Z,74.30
2019-02-25T01:52:12.016Z,73.00
2019-02-25T01:56:47.789Z,74.30
2019-02-25T02:01:23.564Z,74.90
2019-02-25T02:05:59.349Z,74.10
2019-02-25T02:10:35.140Z,73.60
2019-02-25T02:15:13.517Z,72.90
2019-02-25T02:19:49.333Z,72.50
2019-02-25T02:24:25.108Z,72.50
2019-02-25T02:29:00.876Z,72.20
2019-02-25T02:33:36.650Z,73.40
2019-02-25T02:38:12.421Z,74.80
2019-02-25T02:42:51.420Z,75.90
2019-02-25T02:47:53.973Z,76.70
2019-02-25T02:52:29.825Z,77.20
2019-02-25T02:57:05.695Z,75.50
2019-02-25T03:01:41.462Z,76.30
2019-02-25T03:06:17.269Z,76.10
2019-02-25T03:10:53.104Z,76.50
2019-02-25T03:15:28.874Z,76.20
2019-02-25T03:20:05.385Z,75.90
2019-02-25T03:24:41.172Z,75.70
2019-02-25T03:29:16.941Z,75.60
2019-02-25T03:33:52.719Z,76.20
2019-02-25T03:38:28.489Z,76.10
2019-02-25T03:43:04.327Z,77.20
2019-02-25T03:47:40.136Z,77.70
2019-02-25T03:52:15.926Z,78.20
2019-02-25T03:56:52.073Z,78.70
2019-02-25T04:01:27.868Z,78.30
2019-02-25T04:06:03.634Z,78.10
2019-02-25T04:10:39.413Z,78.20
2019-02-25T04:15:19.290Z,78.40
2019-02-25T04:19:55.064Z,78.20
2019-02-25T04:24:30.862Z,78.60
2019-02-25T04:29:06.648Z,77.80
2019-02-25T04:33:43.480Z,77.50
2019-02-25T04:38:19.265Z,77.50
2019-02-25T04:42:55.041Z,78.10
2019-02-25T04:47:30.833Z,78.60
2019-02-25T04:52:06.598Z,78.60
2019-02-25T04:56:42.502Z,78.70
2019-02-25T05:01:18.274Z,77.90
2019-02-25T05:05:54.085Z,79.10
2019-02-25T05:10:32.242Z,79.50
2019-02-25T05:15:10.236Z,78.50
2019-02-25T05:19:45.992Z,78.40
2019-02-25T05:24:23.524Z,78.60
2019-02-25T05:28:57.408Z,79.60
2019-02-25T05:33:33.187Z,79.10
2019-02-25T05:38:08.946Z,79.00
2019-02-25T05:42:44.838Z,80.60
2019-02-25T05:47:20.627Z,80.80
2019-02-25T05:51:56.505Z,80.90
2019-02-25T05:56:32.570Z,80.60
2019-02-25T06:01:08.362Z,80.30
2019-02-25T06:05:45.224Z,79.80
2019-02-25T06:10:21.045Z,80.30
2019-02-25T06:14:56.835Z,79.70
2019-02-25T06:19:32.668Z,79.80
2019-02-25T06:24:09.589Z,79.70
2019-02-25T06:28:45.376Z,80.30
2019-02-25T06:33:21.190Z,80.00
2019-02-25T06:37:57.253Z,80.80
2019-02-25T06:42:33.017Z,80.60
2019-02-25T06:47:08.814Z,80.00
2019-02-25T06:51:44.577Z,79.60
2019-02-25T06:56:20.370Z,80.20
2019-02-25T07:00:56.133Z,80.50
2019-02-25T07:05:49.521Z,80.80
2019-02-25T07:10:50.312Z,81.60
2019-02-25T07:15:54.102Z,81.00
2019-02-25T07:20:42.901Z,80.50
2019-02-25T07:25:40.713Z,81.20
2019-02-25T07:30:22.269Z,81.30
2019-02-25T07:35:17.075Z,81.40
2019-02-25T07:40:11.778Z,80.60
2019-02-25T07:45:05.178Z,79.20
2019-02-25T07:50:03.083Z,79.10
2019-02-25T07:54:56.513Z,80.30
2019-02-25T07:59:57.441Z,80.70
2019-02-25T08:04:51.190Z,79.80
2019-02-25T08:09:41.993Z,79.70
2019-02-25T08:14:39.307Z,79.60
2019-02-25T08:19:32.793Z,79.90
2019-02-25T08:24:42.796Z,80.50
2019-02-25T08:29:30.038Z,80.30
2019-02-25T08:34:23.598Z,80.00
2019-02-25T08:39:27.252Z,80.40
2019-02-25T08:44:15.629Z,80.30
2019-02-25T08:49:04.002Z,79.80
2019-02-25T08:53:39.760Z,79.10
2019-02-25T08:58:15.861Z,78.60
2019-02-25T09:02:51.642Z,77.60
2019-02-25T09:07:29.012Z,76.10
2019-02-25T09:12:04.874Z,75.60
2019-02-25T09:16:40.672Z,75.10
2019-02-25T09:21:16.478Z,74.00
2019-02-25T09:25:53.837Z,73.30
2019-02-25T09:30:29.630Z,72.40
2019-02-25T09:35:06.121Z,71.90
2019-02-25T09:39:41.935Z,70.90
2019-02-25T09:44:17.848Z,70.00
2019-02-25T09:48:53.629Z,69.20
2019-02-25T09:53:29.430Z,70.20
2019-02-25T09:58:05.203Z,69.70
2019-02-25T10:02:40.984Z,69.40
2019-02-25T10:07:16.748Z,69.20
2019-02-25T10:11:52.561Z,68.60
2019-02-25T10:16:28.369Z,68.30
2019-02-25T10:21:04.202Z,67.20
2019-02-25T10:25:39.978Z,68.60
2019-02-25T10:30:15.787Z,68.20
2019-02-25T10:34:51.663Z,67.60
2019-02-25T10:39:27.446Z,67.70
2019-02-25T10:44:06.533Z,64.50
2019-02-25T10:48:43.277Z,64.90
2019-02-25T10:53:20.277Z,65.20
2019-02-25T10:57:57.651Z,64.30
2019-02-25T11:02:34.320Z,64.30
2019-02-25T11:07:11.788Z,64.00
2019-02-25T11:11:48.568Z,64.10
2019-02-25T11:16:25.328Z,62.70
2019-02-25T11:21:01.284Z,62.20
2019-02-25T11:25:38.645Z,62.60
2019-02-25T11:30:16.685Z,62.80
2019-02-25T11:34:52.517Z,61.70
2019-02-25T11:39:30.231Z,62.00
2019-02-25T11:44:05.906Z,61.30
2019-02-25T11:48:41.672Z,61.20
2019-02-25T11:53:17.864Z,61.50
2019-02-25T11:57:53.641Z,61.30
2019-02-25T12:02:29.487Z,60.70
2019-02-25T12:07:05.250Z,61.10
2019-02-25T12:11:41.037Z,61.00
2019-02-25T12:16:18.613Z,61.20
2019-02-25T12:20:54.408Z,60.90
2019-02-25T12:25:31.209Z,60.60
2019-02-25T12:30:13.493Z,61.10
2019-02-25T12:34:49.299Z,61.10
2019-02-25T12:39:25.093Z,60.40
2019-02-25T12:44:00.930Z,60.10
2019-02-25T12:48:36.977Z,59.70
2019-02-25T12:53:12.746Z,59.00
2019-02-25T12:57:48.539Z,59.40
2019-02-25T13:02:24.342Z,58.80
2019-02-25T13:07:00.135Z,58.30
2019-02-25T13:11:35.931Z,57.90
2019-02-25T13:16:13.246Z,57.70
2019-02-25T13:20:47.345Z,57.50
2019-02-25T13:25:23.176Z,56.60
2019-02-25T13:29:58.951Z,56.40
2019-02-25T13:34:35.240Z,56.10
2019-02-25T13:39:11.376Z,55.20
2019-02-25T13:43:47.681Z,55.10
2019-02-25T13:48:23.541Z,54.40
2019-02-25T13:52:59.461Z,54.20
2019-02-25T13:57:35.364Z,54.20
2019-02-25T14:02:11.246Z,54.30
2019-02-25T14:06:47.100Z,54.30
2019-02-25T14:11:25.133Z,54.30
2019-02-25T14:16:01.255Z,54.10
2019-02-25T14:20:37.800Z,54.00
2019-02-25T14:25:15.210Z,54.20
2019-02-25T14:29:51.281Z,54.20
2019-02-25T14:34:28.697Z,53.60
2019-02-25T14:39:15.865Z,53.60
2019-02-25T14:43:54.231Z,53.40
2019-02-25T14:48:32.830Z,53.00
2019-02-25T14:53:11.409Z,53.30
2019-02-25T14:57:47.755Z,53.20
2019-02-25T15:02:24.444Z,52.80
2019-02-25T15:07:00.821Z,52.90
2019-02-25T15:11:36.981Z,52.70
2019-02-25T15:16:13.047Z,52.60
2019-02-25T15:20:50.965Z,52.80
2019-02-25T15:25:29.228Z,52.80
2019-02-25T15:30:05.536Z,52.70
2019-02-25T15:34:42.885Z,52.90
2019-02-25T15:39:20.334Z,52.70
2019-02-25T15:43:59.840Z,53.10
2019-02-25T15:48:34.987Z,53.10
2019-02-25T15:53:16.008Z,53.30
2019-02-25T15:57:51.454Z,53.60
2019-02-25T16:02:28.044Z,53.80
2019-02-25T16:07:06.632Z,54.20
2019-02-25T16:11:45.684Z,55.20
2019-02-25T16:16:23.395Z,55.60
2019-02-25T16:20:59.965Z,56.20
2019-02-25T16:25:36.661Z,56.20
2019-02-25T16:30:13.778Z,56.60
2019-02-25T16:34:51.188Z,57.30
2019-02-25T16:39:28.931Z,57.70
2019-02-25T16:44:06.803Z,58.10
2019-02-25T16:48:46.293Z,58.60
2019-02-25T16:53:22.612Z,59.20
2019-02-25T16:58:01.152Z,59.90
2019-02-25T17:02:38.463Z,60.30
2019-02-25T17:07:16.149Z,60.70
2019-02-25T17:11:53.123Z,60.90
2019-02-25T17:16:29.449Z,61.30
2019-02-25T17:21:07.664Z,61.50
2019-02-25T17:25:44.103Z,62.60
2019-02-25T17:30:21.658Z,62.70
2019-02-25T17:34:58.198Z,62.90
2019-02-25T17:39:37.563Z,63.40
2019-02-25T17:44:14.889Z,63.40
2019-02-25T17:48:51.325Z,63.30
2019-02-25T17:53:30.525Z,63.80
2019-02-25T17:58:07.886Z,63.70
2019-02-25T18:02:44.667Z,63.90
2019-02-25T18:07:20.773Z,64.10
2019-02-25T18:11:56.777Z,64.20
2019-02-25T18:16:35.006Z,64.80
2019-02-25T18:21:10.900Z,65.20
2019-02-25T18:25:46.861Z,65.20
2019-02-25T18:30:26.323Z,65.10
2019-02-25T18:35:02.676Z,64.90
2019-02-25T18:39:38.671Z,64.90
2019-02-25T18:44:15.665Z,64.80
2019-02-25T18:48:52.361Z,64.60
2019-02-25T18:53:30.390Z,65.00
2019-02-25T18:58:10.150Z,64.90
2019-02-25T19:02:46.393Z,65.20
2019-02-25T19:07:25.129Z,65.40
2019-02-25T19:12:02.631Z,64.70
2019-02-25T19:16:40.038Z,64.60
2019-02-25T19:21:17.989Z,64.60
2019-02-25T19:25:54.002Z,64.70
2019-02-25T19:30:31.794Z,64.90
2019-02-25T19:35:10.235Z,65.20
2019-02-25T19:39:48.842Z,64.80
2019-02-25T19:44:27.851Z,65.00
2019-02-25T19:49:05.246Z,65.10
2019-02-25T19:53:43.043Z,65.00
2019-02-25T19:58:19.376Z,64.80
2019-02-25T20:03:05.173Z,65.20
2019-02-25T20:07:35.865Z,65.50
2019-02-25T20:12:13.320Z,65.50
2019-02-25T20:16:49.501Z,66.00
2019-02-25T20:21:27.196Z,66.90
2019-02-25T20:26:03.464Z,67.00
2019-02-25T20:30:39.790Z,67.60
2019-02-25T20:35:17.730Z,68.80
2019-02-25T20:39:54.066Z,67.90
2019-02-25T20:44:31.085Z,68.00
2019-02-25T20:49:08.589Z,67.90
2019-02-25T20:53:46.143Z,67.60
2019-02-25T20:58:23.231Z,67.70
2019-02-25T21:02:59.197Z,68.30
2019-02-25T21:07:38.021Z,68.10
2019-02-25T21:12:19.663Z,67.80
2019-02-25T21:16:54.349Z,67.80
2019-02-25T21:21:32.529Z,67.70
2019-02-25T21:26:11.399Z,67.70
2019-02-25T21:30:48.867Z,67.20
2019-02-25T21:35:27.583Z,67.90
2019-02-25T21:40:05.175Z,68.90
2019-02-25T21:44:46.158Z,68.80
2019-02-25T21:49:24.997Z,68.90
2019-02-25T21:53:59.989Z,68.10
2019-02-25T21:58:36.609Z,67.70
2019-02-25T22:03:15.000Z,67.50
2019-02-25T22:07:54.258Z,67.10
2019-02-25T22:12:30.882Z,66.60
2019-02-25T22:17:08.313Z,66.20
2019-02-25T22:21:44.658Z,65.80
2019-02-25T22:26:24.487Z,66.10
2019-02-25T22:31:01.056Z,65.90
2019-02-25T22:35:38.069Z,66.30
2019-02-25T22:40:17.063Z,66.50
2019-02-25T22:44:56.127Z,66.50
2019-02-25T22:49:32.527Z,67.40
2019-02-25T22:54:10.317Z,68.10
2019-02-25T22:58:46.770Z,68.60
2019-02-25T23:03:25.051Z,68.40
2019-02-25T23:08:01.092Z,68.30
2019-02-25T23:12:38.168Z,70.80
2019-02-25T23:17:17.395Z,71.80
2019-02-25T23:21:53.248Z,72.00
2019-02-25T23:26:29.472Z,71.70
2019-02-25T23:31:05.648Z,72.40
2019-02-25T23:35:44.703Z,72.40
2019-02-25T23:40:19.593Z,72.40
2019-02-25T23:44:55.836Z,72.40
2019-02-25T23:49:33.947Z,72.20
2019-02-25T23:54:12.164Z,71.20
2019-02-25T23:58:50.060Z,70.40
